sensor_id;sensor_type;location;lat;lon;timestamp;P1;durP1;ratioP1;P2;durP2;ratioP2
24635;SDS011;12772;49.794;10.024;2022-08-23T00:03:01;3.85;;;2.55;;
24635;SDS011;12772;49.794;10.024;2022-08-23T00:07:04;2.92;;;1.95;;
24635;SDS011;12772;49.794;10.024;2022-08-23T00:11:53;2.40;;;2.20;;
24635;SDS011;12772;49.794;10.024;2022-08-23T00:15:34;5.22;;;3.00;;
24635;SDS011;12772;49.794;10.024;2022-08-23T00:19:36;2.78;;;2.58;;
24635;SDS011;12772;49.794;10.024;2022-08-23T00:23:39;5.90;;;2.58;;
24635;SDS011;12772;49.794;10.024;2022-08-23T00:27:41;2.30;;;2.20;;
24635;SDS011;12772;49.794;10.024;2022-08-23T00:31:44;2.70;;;2.33;;
24635;SDS011;12772;49.794;10.024;2022-08-23T00:35:47;2.50;;;2.30;;
24635;SDS011;12772;49.794;10.024;2022-08-23T00:39:49;4.13;;;2.35;;
24635;SDS011;12772;49.794;10.024;2022-08-23T00:43:51;2.63;;;2.42;;
24635;SDS011;12772;49.794;10.024;2022-08-23T00:48:13;2.75;;;2.40;;
24635;SDS011;12772;49.794;10.024;2022-08-23T00:52:21;2.40;;;2.20;;
24635;SDS011;12772;49.794;10.024;2022-08-23T00:56:33;6.43;;;2.67;;
24635;SDS011;12772;49.794;10.024;2022-08-23T01:00:38;3.00;;;2.35;;
24635;SDS011;12772;49.794;10.024;2022-08-23T01:04:43;3.63;;;2.60;;
24635;SDS011;12772;49.794;10.024;2022-08-23T01:08:53;2.85;;;2.60;;
24635;SDS011;12772;49.794;10.024;2022-08-23T01:13:01;2.50;;;2.13;;
24635;SDS011;12772;49.794;10.024;2022-08-23T01:21:30;2.42;;;2.22;;
24635;SDS011;12772;49.794;10.024;2022-08-23T01:25:39;4.82;;;3.08;;
24635;SDS011;12772;49.794;10.024;2022-08-23T01:29:41;4.45;;;2.80;;
24635;SDS011;12772;49.794;10.024;2022-08-23T01:33:45;4.15;;;3.13;;
24635;SDS011;12772;49.794;10.024;2022-08-23T01:37:50;3.05;;;2.85;;
24635;SDS011;12772;49.794;10.024;2022-08-23T01:41:52;3.85;;;3.17;;
24635;SDS011;12772;49.794;10.024;2022-08-23T01:45:54;4.35;;;2.88;;
24635;SDS011;12772;49.794;10.024;2022-08-23T01:49:57;3.53;;;2.72;;
24635;SDS011;12772;49.794;10.024;2022-08-23T01:53:59;3.40;;;2.85;;
24635;SDS011;12772;49.794;10.024;2022-08-23T01:58:01;3.75;;;2.50;;
24635;SDS011;12772;49.794;10.024;2022-08-23T02:02:04;4.70;;;2.92;;
24635;SDS011;12772;49.794;10.024;2022-08-23T02:06:06;3.90;;;3.10;;
24635;SDS011;12772;49.794;10.024;2022-08-23T02:10:09;3.13;;;2.65;;
24635;SDS011;12772;49.794;10.024;2022-08-23T02:14:13;3.80;;;2.95;;
24635;SDS011;12772;49.794;10.024;2022-08-23T02:18:19;3.08;;;2.78;;
24635;SDS011;12772;49.794;10.024;2022-08-23T02:22:21;4.75;;;2.90;;
24635;SDS011;12772;49.794;10.024;2022-08-23T02:26:23;3.63;;;2.75;;
24635;SDS011;12772;49.794;10.024;2022-08-23T02:30:26;3.42;;;3.13;;
24635;SDS011;12772;49.794;10.024;2022-08-23T02:34:28;3.28;;;2.97;;
24635;SDS011;12772;49.794;10.024;2022-08-23T02:38:31;4.20;;;2.60;;
24635;SDS011;12772;49.794;10.024;2022-08-23T02:42:33;4.15;;;3.28;;
24635;SDS011;12772;49.794;10.024;2022-08-23T02:46:36;3.40;;;3.10;;
24635;SDS011;12772;49.794;10.024;2022-08-23T02:50:39;6.50;;;3.10;;
24635;SDS011;12772;49.794;10.024;2022-08-23T02:54:41;2.72;;;2.53;;
24635;SDS011;12772;49.794;10.024;2022-08-23T02:58:43;3.58;;;2.47;;
24635;SDS011;12772;49.794;10.024;2022-08-23T03:02:45;2.90;;;2.70;;
24635;SDS011;12772;49.794;10.024;2022-08-23T03:06:48;2.80;;;2.60;;
24635;SDS011;12772;49.794;10.024;2022-08-23T03:10:50;3.58;;;2.90;;
24635;SDS011;12772;49.794;10.024;2022-08-23T03:14:53;3.17;;;2.80;;
24635;SDS011;12772;49.794;10.024;2022-08-23T03:18:55;3.22;;;2.90;;
24635;SDS011;12772;49.794;10.024;2022-08-23T03:22:57;3.33;;;3.03;;
24635;SDS011;12772;49.794;10.024;2022-08-23T03:27:00;3.47;;;3.17;;
24635;SDS011;12772;49.794;10.024;2022-08-23T03:31:02;7.80;;;5.60;;
24635;SDS011;12772;49.794;10.024;2022-08-23T03:35:06;17.90;;;11.15;;
24635;SDS011;12772;49.794;10.024;2022-08-23T03:39:09;19.45;;;12.18;;
24635;SDS011;12772;49.794;10.024;2022-08-23T03:43:11;18.45;;;12.27;;
24635;SDS011;12772;49.794;10.024;2022-08-23T03:47:14;14.32;;;9.57;;
24635;SDS011;12772;49.794;10.024;2022-08-23T03:51:16;13.75;;;8.25;;
24635;SDS011;12772;49.794;10.024;2022-08-23T03:55:19;13.75;;;8.60;;
24635;SDS011;12772;49.794;10.024;2022-08-23T03:59:21;13.30;;;8.75;;
24635;SDS011;12772;49.794;10.024;2022-08-23T04:03:23;11.43;;;7.25;;
24635;SDS011;12772;49.794;10.024;2022-08-23T04:07:26;8.93;;;5.90;;
24635;SDS011;12772;49.794;10.024;2022-08-23T04:11:28;8.00;;;5.90;;
24635;SDS011;12772;49.794;10.024;2022-08-23T04:15:30;6.20;;;4.75;;
24635;SDS011;12772;49.794;10.024;2022-08-23T04:19:33;3.55;;;3.25;;
24635;SDS011;12772;49.794;10.024;2022-08-23T04:23:36;3.63;;;3.13;;
24635;SDS011;12772;49.794;10.024;2022-08-23T04:27:38;3.30;;;3.00;;
24635;SDS011;12772;49.794;10.024;2022-08-23T04:31:42;3.70;;;3.03;;
24635;SDS011;12772;49.794;10.024;2022-08-23T04:35:45;4.68;;;3.40;;
24635;SDS011;12772;49.794;10.024;2022-08-23T04:39:47;4.80;;;3.25;;
24635;SDS011;12772;49.794;10.024;2022-08-23T04:44:07;3.65;;;3.08;;
24635;SDS011;12772;49.794;10.024;2022-08-23T04:48:09;2.90;;;2.65;;
24635;SDS011;12772;49.794;10.024;2022-08-23T04:52:11;4.25;;;2.92;;
24635;SDS011;12772;49.794;10.024;2022-08-23T04:56:14;4.05;;;2.42;;
24635;SDS011;12772;49.794;10.024;2022-08-23T05:00:16;3.78;;;2.95;;
24635;SDS011;12772;49.794;10.024;2022-08-23T05:04:18;7.25;;;2.90;;
24635;SDS011;12772;49.794;10.024;2022-08-23T05:08:20;3.85;;;3.28;;
24635;SDS011;12772;49.794;10.024;2022-08-23T05:12:22;5.13;;;3.67;;
24635;SDS011;12772;49.794;10.024;2022-08-23T05:16:24;5.47;;;3.70;;
24635;SDS011;12772;49.794;10.024;2022-08-23T05:20:26;4.63;;;3.60;;
24635;SDS011;12772;49.794;10.024;2022-08-23T05:24:28;4.18;;;3.72;;
24635;SDS011;12772;49.794;10.024;2022-08-23T05:28:31;5.95;;;4.05;;
24635;SDS011;12772;49.794;10.024;2022-08-23T05:32:35;4.65;;;3.38;;
24635;SDS011;12772;49.794;10.024;2022-08-23T05:36:37;6.65;;;4.13;;
24635;SDS011;12772;49.794;10.024;2022-08-23T05:40:39;7.15;;;4.30;;
24635;SDS011;12772;49.794;10.024;2022-08-23T05:44:41;8.45;;;6.55;;
24635;SDS011;12772;49.794;10.024;2022-08-23T05:48:45;18.00;;;11.00;;
24635;SDS011;12772;49.794;10.024;2022-08-23T05:52:50;12.48;;;7.90;;
24635;SDS011;12772;49.794;10.024;2022-08-23T05:56:52;10.15;;;5.40;;
24635;SDS011;12772;49.794;10.024;2022-08-23T06:00:54;8.23;;;5.07;;
24635;SDS011;12772;49.794;10.024;2022-08-23T06:04:56;6.00;;;4.40;;
24635;SDS011;12772;49.794;10.024;2022-08-23T06:08:59;5.78;;;4.63;;
24635;SDS011;12772;49.794;10.024;2022-08-23T06:13:02;4.57;;;4.03;;
24635;SDS011;12772;49.794;10.024;2022-08-23T06:17:04;6.80;;;5.50;;
24635;SDS011;12772;49.794;10.024;2022-08-23T06:21:07;8.57;;;6.25;;
24635;SDS011;12772;49.794;10.024;2022-08-23T06:25:10;8.73;;;5.15;;
24635;SDS011;12772;49.794;10.024;2022-08-23T06:29:14;5.68;;;4.50;;
24635;SDS011;12772;49.794;10.024;2022-08-23T06:33:18;5.22;;;3.70;;
24635;SDS011;12772;49.794;10.024;2022-08-23T06:37:20;4.80;;;3.40;;
24635;SDS011;12772;49.794;10.024;2022-08-23T06:41:22;4.47;;;3.90;;
24635;SDS011;12772;49.794;10.024;2022-08-23T06:45:24;5.00;;;4.45;;
24635;SDS011;12772;49.794;10.024;2022-08-23T06:49:27;5.53;;;4.18;;
24635;SDS011;12772;49.794;10.024;2022-08-23T06:53:29;5.13;;;4.20;;
24635;SDS011;12772;49.794;10.024;2022-08-23T06:57:31;6.60;;;4.45;;
24635;SDS011;12772;49.794;10.024;2022-08-23T07:01:43;5.47;;;4.40;;
24635;SDS011;12772;49.794;10.024;2022-08-23T07:05:48;4.30;;;3.63;;
24635;SDS011;12772;49.794;10.024;2022-08-23T07:09:50;4.45;;;2.90;;
24635;SDS011;12772;49.794;10.024;2022-08-23T07:13:53;3.50;;;3.20;;
24635;SDS011;12772;49.794;10.024;2022-08-23T07:17:55;3.38;;;2.63;;
24635;SDS011;12772;49.794;10.024;2022-08-23T07:21:58;3.33;;;2.60;;
24635;SDS011;12772;49.794;10.024;2022-08-23T07:26:02;4.15;;;2.70;;
24635;SDS011;12772;49.794;10.024;2022-08-23T07:30:11;3.80;;;3.20;;
24635;SDS011;12772;49.794;10.024;2022-08-23T07:34:13;4.65;;;2.60;;
24635;SDS011;12772;49.794;10.024;2022-08-23T07:38:16;3.58;;;2.58;;
24635;SDS011;12772;49.794;10.024;2022-08-23T07:42:18;3.15;;;2.85;;
24635;SDS011;12772;49.794;10.024;2022-08-23T07:46:20;4.13;;;2.72;;
24635;SDS011;12772;49.794;10.024;2022-08-23T07:50:22;3.30;;;2.60;;
24635;SDS011;12772;49.794;10.024;2022-08-23T07:54:24;2.75;;;2.55;;
24635;SDS011;12772;49.794;10.024;2022-08-23T07:58:28;4.90;;;3.00;;
24635;SDS011;12772;49.794;10.024;2022-08-23T08:02:30;5.72;;;2.70;;
24635;SDS011;12772;49.794;10.024;2022-08-23T08:10:45;3.70;;;2.65;;
24635;SDS011;12772;49.794;10.024;2022-08-23T08:14:47;6.95;;;3.35;;
24635;SDS011;12772;49.794;10.024;2022-08-23T08:18:50;3.92;;;2.90;;
24635;SDS011;12772;49.794;10.024;2022-08-23T08:22:53;7.03;;;3.25;;
24635;SDS011;12772;49.794;10.024;2022-08-23T08:26:56;3.20;;;2.80;;
24635;SDS011;12772;49.794;10.024;2022-08-23T08:30:58;8.75;;;3.65;;
24635;SDS011;12772;49.794;10.024;2022-08-23T08:35:01;5.60;;;3.25;;
24635;SDS011;12772;49.794;10.024;2022-08-23T08:39:05;4.00;;;2.60;;
24635;SDS011;12772;49.794;10.024;2022-08-23T08:47:28;5.30;;;2.92;;
24635;SDS011;12772;49.794;10.024;2022-08-23T08:51:47;7.13;;;2.63;;
24635;SDS011;12772;49.794;10.024;2022-08-23T08:55:57;4.90;;;2.50;;
24635;SDS011;12772;49.794;10.024;2022-08-23T09:00:05;7.75;;;2.50;;
24635;SDS011;12772;49.794;10.024;2022-08-23T09:04:10;6.25;;;2.83;;
24635;SDS011;12772;49.794;10.024;2022-08-23T09:08:22;5.40;;;2.60;;
24635;SDS011;12772;49.794;10.024;2022-08-23T09:16:53;2.88;;;2.20;;
24635;SDS011;12772;49.794;10.024;2022-08-23T09:21:20;3.88;;;2.25;;
24635;SDS011;12772;49.794;10.024;2022-08-23T09:25:24;4.50;;;2.13;;
24635;SDS011;12772;49.794;10.024;2022-08-23T09:29:30;5.07;;;2.40;;
24635;SDS011;12772;49.794;10.024;2022-08-23T09:33:41;4.20;;;2.30;;
24635;SDS011;12772;49.794;10.024;2022-08-23T09:37:46;3.97;;;2.40;;
24635;SDS011;12772;49.794;10.024;2022-08-23T09:42:00;4.90;;;2.70;;
24635;SDS011;12772;49.794;10.024;2022-08-23T09:46:02;3.13;;;2.13;;
24635;SDS011;12772;49.794;10.024;2022-08-23T09:50:09;3.97;;;2.00;;
24635;SDS011;12772;49.794;10.024;2022-08-23T09:58:37;4.70;;;2.22;;
24635;SDS011;12772;49.794;10.024;2022-08-23T10:02:44;4.25;;;2.38;;
24635;SDS011;12772;49.794;10.024;2022-08-23T10:06:46;2.28;;;2.10;;
24635;SDS011;12772;49.794;10.024;2022-08-23T10:10:48;2.40;;;2.17;;
24635;SDS011;12772;49.794;10.024;2022-08-23T10:14:53;1.90;;;1.70;;
24635;SDS011;12772;49.794;10.024;2022-08-23T10:19:01;3.78;;;1.90;;
24635;SDS011;12772;49.794;10.024;2022-08-23T10:23:23;3.05;;;2.10;;
24635;SDS011;12772;49.794;10.024;2022-08-23T10:32:20;3.03;;;2.08;;
24635;SDS011;12772;49.794;10.024;2022-08-23T10:36:43;4.38;;;2.53;;
24635;SDS011;12772;49.794;10.024;2022-08-23T10:45:14;4.82;;;1.95;;
24635;SDS011;12772;49.794;10.024;2022-08-23T10:49:22;3.72;;;2.28;;
24635;SDS011;12772;49.794;10.024;2022-08-23T10:53:33;2.67;;;2.00;;
24635;SDS011;12772;49.794;10.024;2022-08-23T10:57:39;2.22;;;2.03;;
24635;SDS011;12772;49.794;10.024;2022-08-23T11:06:51;7.55;;;2.25;;
24635;SDS011;12772;49.794;10.024;2022-08-23T11:10:56;3.40;;;2.15;;
24635;SDS011;12772;49.794;10.024;2022-08-23T11:15:02;3.38;;;2.10;;
24635;SDS011;12772;49.794;10.024;2022-08-23T11:19:11;2.55;;;2.30;;
24635;SDS011;12772;49.794;10.024;2022-08-23T11:23:16;2.40;;;1.70;;
24635;SDS011;12772;49.794;10.024;2022-08-23T11:28:29;4.35;;;2.20;;
24635;SDS011;12772;49.794;10.024;2022-08-23T11:32:40;3.42;;;2.13;;
24635;SDS011;12772;49.794;10.024;2022-08-23T11:41:23;2.38;;;1.90;;
24635;SDS011;12772;49.794;10.024;2022-08-23T11:49:52;2.85;;;1.80;;
24635;SDS011;12772;49.794;10.024;2022-08-23T12:03:22;3.03;;;1.88;;
24635;SDS011;12772;49.794;10.024;2022-08-23T12:07:50;2.10;;;1.85;;
24635;SDS011;12772;49.794;10.024;2022-08-23T12:12:08;2.25;;;1.90;;
24635;SDS011;12772;49.794;10.024;2022-08-23T12:16:34;2.85;;;2.00;;
24635;SDS011;12772;49.794;10.024;2022-08-23T12:20:38;2.05;;;1.88;;
24635;SDS011;12772;49.794;10.024;2022-08-23T12:24:42;3.97;;;1.90;;
24635;SDS011;12772;49.794;10.024;2022-08-23T12:28:48;3.03;;;1.75;;
24635;SDS011;12772;49.794;10.024;2022-08-23T12:37:21;2.08;;;1.70;;
24635;SDS011;12772;49.794;10.024;2022-08-23T12:41:32;3.78;;;1.90;;
24635;SDS011;12772;49.794;10.024;2022-08-23T12:46:00;2.78;;;1.98;;
24635;SDS011;12772;49.794;10.024;2022-08-23T12:50:05;4.60;;;1.88;;
24635;SDS011;12772;49.794;10.024;2022-08-23T12:54:21;4.82;;;2.10;;
24635;SDS011;12772;49.794;10.024;2022-08-23T12:58:34;2.88;;;1.85;;
24635;SDS011;12772;49.794;10.024;2022-08-23T13:02:40;2.25;;;1.75;;
24635;SDS011;12772;49.794;10.024;2022-08-23T13:06:48;3.70;;;1.95;;
24635;SDS011;12772;49.794;10.024;2022-08-23T13:10:54;2.15;;;1.80;;
24635;SDS011;12772;49.794;10.024;2022-08-23T13:14:57;2.22;;;1.80;;
24635;SDS011;12772;49.794;10.024;2022-08-23T13:19:10;2.95;;;2.38;;
24635;SDS011;12772;49.794;10.024;2022-08-23T13:23:29;3.30;;;1.98;;
24635;SDS011;12772;49.794;10.024;2022-08-23T13:31:56;1.92;;;1.83;;
24635;SDS011;12772;49.794;10.024;2022-08-23T13:36:11;2.33;;;2.10;;
24635;SDS011;12772;49.794;10.024;2022-08-23T13:40:23;3.05;;;2.25;;
24635;SDS011;12772;49.794;10.024;2022-08-23T13:44:28;2.72;;;2.20;;
24635;SDS011;12772;49.794;10.024;2022-08-23T13:48:32;3.15;;;1.67;;
24635;SDS011;12772;49.794;10.024;2022-08-23T13:52:35;2.75;;;2.40;;
24635;SDS011;12772;49.794;10.024;2022-08-23T13:56:38;2.08;;;1.90;;
24635;SDS011;12772;49.794;10.024;2022-08-23T14:00:46;3.33;;;2.15;;
24635;SDS011;12772;49.794;10.024;2022-08-23T14:04:48;3.58;;;1.80;;
24635;SDS011;12772;49.794;10.024;2022-08-23T14:08:50;2.15;;;1.90;;
24635;SDS011;12772;49.794;10.024;2022-08-23T14:12:52;2.60;;;2.13;;
24635;SDS011;12772;49.794;10.024;2022-08-23T14:16:55;1.58;;;1.48;;
24635;SDS011;12772;49.794;10.024;2022-08-23T14:20:57;2.60;;;2.00;;
24635;SDS011;12772;49.794;10.024;2022-08-23T14:25:00;3.30;;;2.15;;
24635;SDS011;12772;49.794;10.024;2022-08-23T14:29:02;2.00;;;1.80;;
24635;SDS011;12772;49.794;10.024;2022-08-23T14:33:05;2.30;;;1.45;;
24635;SDS011;12772;49.794;10.024;2022-08-23T14:37:07;3.08;;;2.13;;
24635;SDS011;12772;49.794;10.024;2022-08-23T14:41:10;2.20;;;2.00;;
24635;SDS011;12772;49.794;10.024;2022-08-23T14:45:17;1.90;;;1.80;;
24635;SDS011;12772;49.794;10.024;2022-08-23T14:49:19;3.22;;;1.98;;
24635;SDS011;12772;49.794;10.024;2022-08-23T14:53:22;3.30;;;1.70;;
24635;SDS011;12772;49.794;10.024;2022-08-23T14:57:28;5.25;;;2.35;;
24635;SDS011;12772;49.794;10.024;2022-08-23T15:01:30;2.95;;;2.00;;
24635;SDS011;12772;49.794;10.024;2022-08-23T15:05:32;2.17;;;2.08;;
24635;SDS011;12772;49.794;10.024;2022-08-23T15:09:34;4.80;;;1.90;;
24635;SDS011;12772;49.794;10.024;2022-08-23T15:13:36;5.75;;;1.80;;
24635;SDS011;12772;49.794;10.024;2022-08-23T15:17:43;3.08;;;1.73;;
24635;SDS011;12772;49.794;10.024;2022-08-23T15:21:57;2.47;;;1.80;;
24635;SDS011;12772;49.794;10.024;2022-08-23T15:25:59;4.25;;;2.03;;
24635;SDS011;12772;49.794;10.024;2022-08-23T15:30:02;3.38;;;1.77;;
24635;SDS011;12772;49.794;10.024;2022-08-23T15:34:05;2.17;;;1.80;;
24635;SDS011;12772;49.794;10.024;2022-08-23T15:38:08;4.18;;;1.90;;
24635;SDS011;12772;49.794;10.024;2022-08-23T15:42:11;5.85;;;2.40;;
24635;SDS011;12772;49.794;10.024;2022-08-23T15:46:19;6.10;;;1.65;;
24635;SDS011;12772;49.794;10.024;2022-08-23T15:50:24;3.45;;;2.20;;
24635;SDS011;12772;49.794;10.024;2022-08-23T15:54:28;3.58;;;1.88;;
24635;SDS011;12772;49.794;10.024;2022-08-23T15:58:30;2.10;;;1.83;;
24635;SDS011;12772;49.794;10.024;2022-08-23T16:02:32;3.05;;;2.20;;
24635;SDS011;12772;49.794;10.024;2022-08-23T16:06:37;2.55;;;1.90;;
24635;SDS011;12772;49.794;10.024;2022-08-23T16:10:40;3.00;;;1.90;;
24635;SDS011;12772;49.794;10.024;2022-08-23T16:14:42;3.47;;;1.98;;
24635;SDS011;12772;49.794;10.024;2022-08-23T16:18:45;3.05;;;1.92;;
24635;SDS011;12772;49.794;10.024;2022-08-23T16:22:48;3.00;;;1.83;;
24635;SDS011;12772;49.794;10.024;2022-08-23T16:26:50;3.35;;;1.80;;
24635;SDS011;12772;49.794;10.024;2022-08-23T16:30:52;3.95;;;1.80;;
24635;SDS011;12772;49.794;10.024;2022-08-23T16:34:55;2.35;;;1.63;;
24635;SDS011;12772;49.794;10.024;2022-08-23T16:38:57;2.90;;;1.52;;
24635;SDS011;12772;49.794;10.024;2022-08-23T16:42:59;2.00;;;1.90;;
24635;SDS011;12772;49.794;10.024;2022-08-23T16:47:02;3.70;;;2.22;;
24635;SDS011;12772;49.794;10.024;2022-08-23T16:51:06;2.90;;;1.80;;
24635;SDS011;12772;49.794;10.024;2022-08-23T16:55:10;2.65;;;2.00;;
24635;SDS011;12772;49.794;10.024;2022-08-23T16:59:13;2.25;;;2.05;;
24635;SDS011;12772;49.794;10.024;2022-08-23T17:03:16;3.20;;;1.80;;
24635;SDS011;12772;49.794;10.024;2022-08-23T17:07:19;3.67;;;2.10;;
24635;SDS011;12772;49.794;10.024;2022-08-23T17:11:21;2.42;;;2.22;;
24635;SDS011;12772;49.794;10.024;2022-08-23T17:15:28;2.47;;;2.17;;
24635;SDS011;12772;49.794;10.024;2022-08-23T17:19:31;3.67;;;1.92;;
24635;SDS011;12772;49.794;10.024;2022-08-23T17:23:33;3.63;;;2.33;;
24635;SDS011;12772;49.794;10.024;2022-08-23T17:27:36;2.10;;;1.90;;
24635;SDS011;12772;49.794;10.024;2022-08-23T17:31:40;4.30;;;1.92;;
24635;SDS011;12772;49.794;10.024;2022-08-23T17:35:42;3.95;;;2.15;;
24635;SDS011;12772;49.794;10.024;2022-08-23T17:39:46;3.13;;;1.90;;
24635;SDS011;12772;49.794;10.024;2022-08-23T17:43:48;1.95;;;1.70;;
24635;SDS011;12772;49.794;10.024;2022-08-23T17:47:51;2.10;;;1.90;;
24635;SDS011;12772;49.794;10.024;2022-08-23T17:51:54;4.68;;;1.73;;
24635;SDS011;12772;49.794;10.024;2022-08-23T17:55:56;2.30;;;1.90;;
24635;SDS011;12772;49.794;10.024;2022-08-23T17:59:58;2.17;;;1.98;;
24635;SDS011;12772;49.794;10.024;2022-08-23T18:04:01;2.20;;;1.63;;
24635;SDS011;12772;49.794;10.024;2022-08-23T18:08:04;1.85;;;1.63;;
24635;SDS011;12772;49.794;10.024;2022-08-23T18:12:07;5.20;;;1.75;;
24635;SDS011;12772;49.794;10.024;2022-08-23T18:16:09;2.55;;;1.60;;
24635;SDS011;12772;49.794;10.024;2022-08-23T18:20:13;3.22;;;1.85;;
24635;SDS011;12772;49.794;10.024;2022-08-23T18:24:15;2.08;;;1.88;;
24635;SDS011;12772;49.794;10.024;2022-08-23T18:28:18;2.67;;;1.77;;
24635;SDS011;12772;49.794;10.024;2022-08-23T18:32:20;3.75;;;2.17;;
24635;SDS011;12772;49.794;10.024;2022-08-23T18:36:22;1.65;;;1.55;;
24635;SDS011;12772;49.794;10.024;2022-08-23T18:40:25;2.90;;;2.17;;
24635;SDS011;12772;49.794;10.024;2022-08-23T18:44:28;2.25;;;1.65;;
24635;SDS011;12772;49.794;10.024;2022-08-23T18:48:30;4.05;;;2.25;;
24635;SDS011;12772;49.794;10.024;2022-08-23T18:52:33;2.60;;;1.88;;
24635;SDS011;12772;49.794;10.024;2022-08-23T18:56:35;1.63;;;1.52;;
24635;SDS011;12772;49.794;10.024;2022-08-23T19:00:40;2.65;;;1.92;;
24635;SDS011;12772;49.794;10.024;2022-08-23T19:04:43;3.33;;;1.92;;
24635;SDS011;12772;49.794;10.024;2022-08-23T19:08:45;2.50;;;1.95;;
24635;SDS011;12772;49.794;10.024;2022-08-23T19:12:48;2.40;;;2.03;;
24635;SDS011;12772;49.794;10.024;2022-08-23T19:16:50;2.28;;;1.88;;
24635;SDS011;12772;49.794;10.024;2022-08-23T19:20:52;3.90;;;2.30;;
24635;SDS011;12772;49.794;10.024;2022-08-23T19:24:55;6.68;;;3.30;;
24635;SDS011;12772;49.794;10.024;2022-08-23T19:28:58;4.35;;;2.30;;
24635;SDS011;12772;49.794;10.024;2022-08-23T19:33:01;3.17;;;2.08;;
24635;SDS011;12772;49.794;10.024;2022-08-23T19:37:03;8.80;;;5.45;;
24635;SDS011;12772;49.794;10.024;2022-08-23T19:41:07;8.93;;;5.95;;
24635;SDS011;12772;49.794;10.024;2022-08-23T19:45:10;5.72;;;4.22;;
24635;SDS011;12772;49.794;10.024;2022-08-23T19:49:14;7.93;;;4.93;;
24635;SDS011;12772;49.794;10.024;2022-08-23T19:53:16;8.27;;;5.20;;
24635;SDS011;12772;49.794;10.024;2022-08-23T19:57:18;10.93;;;5.07;;
24635;SDS011;12772;49.794;10.024;2022-08-23T20:01:20;5.85;;;2.65;;
24635;SDS011;12772;49.794;10.024;2022-08-23T20:05:23;6.03;;;2.70;;
24635;SDS011;12772;49.794;10.024;2022-08-23T20:09:25;2.83;;;1.80;;
24635;SDS011;12772;49.794;10.024;2022-08-23T20:13:29;3.67;;;2.17;;
24635;SDS011;12772;49.794;10.024;2022-08-23T20:17:31;2.13;;;1.75;;
24635;SDS011;12772;49.794;10.024;2022-08-23T20:21:33;3.58;;;2.03;;
24635;SDS011;12772;49.794;10.024;2022-08-23T20:25:35;1.77;;;1.63;;
24635;SDS011;12772;49.794;10.024;2022-08-23T20:29:37;3.80;;;1.67;;
24635;SDS011;12772;49.794;10.024;2022-08-23T20:33:39;2.97;;;1.90;;
24635;SDS011;12772;49.794;10.024;2022-08-23T20:37:41;2.00;;;1.83;;
24635;SDS011;12772;49.794;10.024;2022-08-23T20:41:43;3.20;;;1.90;;
24635;SDS011;12772;49.794;10.024;2022-08-23T20:45:46;2.17;;;1.90;;
24635;SDS011;12772;49.794;10.024;2022-08-23T20:49:48;2.40;;;2.00;;
24635;SDS011;12772;49.794;10.024;2022-08-23T20:53:50;2.90;;;2.33;;
24635;SDS011;12772;49.794;10.024;2022-08-23T20:57:53;5.10;;;2.80;;
24635;SDS011;12772;49.794;10.024;2022-08-23T21:01:55;5.63;;;4.00;;
24635;SDS011;12772;49.794;10.024;2022-08-23T21:06:05;7.85;;;2.95;;
24635;SDS011;12772;49.794;10.024;2022-08-23T21:10:08;4.55;;;2.38;;
24635;SDS011;12772;49.794;10.024;2022-08-23T21:14:10;5.55;;;3.20;;
24635;SDS011;12772;49.794;10.024;2022-08-23T21:18:13;4.15;;;1.92;;
24635;SDS011;12772;49.794;10.024;2022-08-23T21:22:15;2.53;;;1.55;;
24635;SDS011;12772;49.794;10.024;2022-08-23T21:26:17;4.40;;;2.05;;
24635;SDS011;12772;49.794;10.024;2022-08-23T21:30:21;2.00;;;1.77;;
24635;SDS011;12772;49.794;10.024;2022-08-23T21:34:23;2.65;;;1.92;;
24635;SDS011;12772;49.794;10.024;2022-08-23T21:38:25;2.00;;;1.90;;
24635;SDS011;12772;49.794;10.024;2022-08-23T21:42:27;3.20;;;2.10;;
24635;SDS011;12772;49.794;10.024;2022-08-23T21:46:30;3.38;;;2.15;;
24635;SDS011;12772;49.794;10.024;2022-08-23T21:50:33;3.10;;;2.25;;
24635;SDS011;12772;49.794;10.024;2022-08-23T21:54:35;1.67;;;1.58;;
24635;SDS011;12772;49.794;10.024;2022-08-23T21:58:37;2.25;;;1.92;;
24635;SDS011;12772;49.794;10.024;2022-08-23T22:02:39;2.03;;;1.52;;
24635;SDS011;12772;49.794;10.024;2022-08-23T22:06:42;1.73;;;1.58;;
24635;SDS011;12772;49.794;10.024;2022-08-23T22:10:46;1.38;;;1.27;;
24635;SDS011;12772;49.794;10.024;2022-08-23T22:14:48;2.28;;;1.80;;
24635;SDS011;12772;49.794;10.024;2022-08-23T22:18:50;1.60;;;1.50;;
24635;SDS011;12772;49.794;10.024;2022-08-23T22:22:53;2.03;;;1.60;;
24635;SDS011;12772;49.794;10.024;2022-08-23T22:26:55;1.83;;;1.55;;
24635;SDS011;12772;49.794;10.024;2022-08-23T22:30:58;4.10;;;1.80;;
24635;SDS011;12772;49.794;10.024;2022-08-23T22:35:01;2.60;;;1.80;;
24635;SDS011;12772;49.794;10.024;2022-08-23T22:39:03;2.50;;;1.55;;
24635;SDS011;12772;49.794;10.024;2022-08-23T22:43:06;1.40;;;1.30;;
24635;SDS011;12772;49.794;10.024;2022-08-23T22:47:08;2.55;;;1.70;;
24635;SDS011;12772;49.794;10.024;2022-08-23T22:51:14;3.08;;;2.33;;
24635;SDS011;12772;49.794;10.024;2022-08-23T22:55:18;1.42;;;1.33;;
24635;SDS011;12772;49.794;10.024;2022-08-23T22:59:21;1.70;;;1.60;;
24635;SDS011;12772;49.794;10.024;2022-08-23T23:03:24;1.80;;;1.52;;
24635;SDS011;12772;49.794;10.024;2022-08-23T23:07:26;2.17;;;1.50;;
24635;SDS011;12772;49.794;10.024;2022-08-23T23:11:46;1.20;;;1.20;;
24635;SDS011;12772;49.794;10.024;2022-08-23T23:15:49;2.10;;;1.88;;
24635;SDS011;12772;49.794;10.024;2022-08-23T23:19:51;4.38;;;1.80;;
24635;SDS011;12772;49.794;10.024;2022-08-23T23:24:13;1.73;;;1.60;;
24635;SDS011;12772;49.794;10.024;2022-08-23T23:28:21;2.30;;;1.77;;
24635;SDS011;12772;49.794;10.024;2022-08-23T23:32:23;1.58;;;1.48;;
24635;SDS011;12772;49.794;10.024;2022-08-23T23:36:25;2.15;;;1.48;;
24635;SDS011;12772;49.794;10.024;2022-08-23T23:40:27;1.67;;;1.58;;
24635;SDS011;12772;49.794;10.024;2022-08-23T23:44:29;1.50;;;1.40;;
24635;SDS011;12772;49.794;10.024;2022-08-23T23:48:32;1.67;;;1.45;;
24635;SDS011;12772;49.794;10.024;2022-08-23T23:52:34;2.15;;;1.27;;
24635;SDS011;12772;49.794;10.024;2022-08-23T23:56:36;1.50;;;1.40;;
